createdAt,value
2023-06-03T00:01:59.046Z,45.33
2023-06-03T00:04:30.677Z,45.57
2023-06-03T00:07:00.332Z,45.85
2023-06-03T00:09:28.408Z,46.43
2023-06-03T00:11:56.342Z,46.59
2023-06-03T00:14:24.357Z,46.45
2023-06-03T00:16:52.493Z,46.74
2023-06-03T00:19:22.023Z,46.91
2023-06-03T00:21:50.658Z,47.27
2023-06-03T00:24:24.147Z,47.03
2023-06-03T00:26:52.263Z,47.37
2023-06-03T00:29:20.827Z,47.58
2023-06-03T00:31:49.161Z,47.37
2023-06-03T00:34:17.205Z,47.67
2023-06-03T00:36:45.209Z,47.66
2023-06-03T00:39:13.164Z,47.52
2023-06-03T00:41:42.429Z,47.35
2023-06-03T00:44:10.341Z,47.32
2023-06-03T00:46:38.454Z,47.49
2023-06-03T00:49:06.772Z,47.34
2023-06-03T00:51:37.361Z,47.64
2023-06-03T00:54:05.325Z,47.63
2023-06-03T00:56:44.750Z,48.30
2023-06-03T00:59:17.989Z,48.09
2023-06-03T01:01:46.394Z,48.28
2023-06-03T01:04:18.088Z,47.93
2023-06-03T01:06:56.741Z,48.13
2023-06-03T01:09:33.821Z,48.61
2023-06-03T01:12:09.558Z,48.66
2023-06-03T01:14:45.639Z,48.71
2023-06-03T01:17:16.459Z,48.74
2023-06-03T01:19:50.499Z,48.63
2023-06-03T01:22:21.709Z,48.27
2023-06-03T01:24:52.075Z,48.53
2023-06-03T01:27:22.005Z,49.15
2023-06-03T01:29:50.094Z,48.55
2023-06-03T01:32:19.558Z,48.97
2023-06-03T01:34:48.553Z,49.14
2023-06-03T01:37:16.505Z,48.79
2023-06-03T01:39:45.089Z,49.64
2023-06-03T01:42:14.761Z,49.07
2023-06-03T01:44:43.007Z,49.63
2023-06-03T01:47:11.467Z,49.74
2023-06-03T01:49:40.308Z,49.41
2023-06-03T01:52:08.385Z,49.60
2023-06-03T01:54:36.248Z,50.01
2023-06-03T01:57:04.886Z,49.37
2023-06-03T01:59:34.360Z,50.27
2023-06-03T02:02:02.657Z,49.92
2023-06-03T02:04:30.666Z,50.38
2023-06-03T02:07:00.577Z,49.94
2023-06-03T02:09:29.484Z,50.00
2023-06-03T02:11:57.912Z,49.73
2023-06-03T02:14:26.963Z,50.28
2023-06-03T02:16:57.801Z,50.38
2023-06-03T02:19:27.976Z,50.12
2023-06-03T02:21:59.039Z,50.78
2023-06-03T02:24:29.968Z,50.57
2023-06-03T02:27:02.574Z,50.26
2023-06-03T02:29:31.661Z,50.91
2023-06-03T02:32:02.249Z,50.74
2023-06-03T02:34:30.296Z,50.86
2023-06-03T02:36:58.197Z,51.34
2023-06-03T02:39:26.368Z,51.35
2023-06-03T02:41:54.425Z,52.01
2023-06-03T02:44:22.351Z,51.01
2023-06-03T02:46:50.312Z,51.32
2023-06-03T02:49:19.671Z,51.60
2023-06-03T02:51:47.639Z,52.00
2023-06-03T02:54:15.718Z,51.47
2023-06-03T02:56:43.649Z,51.56
2023-06-03T02:59:11.648Z,51.68
2023-06-03T03:01:39.945Z,52.65
2023-06-03T03:04:07.924Z,52.43
2023-06-03T03:06:38.537Z,52.44
2023-06-03T03:09:06.698Z,52.35
2023-06-03T03:11:34.645Z,52.50
2023-06-03T03:14:03.217Z,52.36
2023-06-03T03:16:31.409Z,53.11
2023-06-03T03:18:59.401Z,53.52
2023-06-03T03:21:27.269Z,53.33
2023-06-03T03:23:56.805Z,52.55
2023-06-03T03:26:25.911Z,53.55
2023-06-03T03:28:54.995Z,53.10
2023-06-03T03:31:23.135Z,52.58
2023-06-03T03:33:51.841Z,53.03
2023-06-03T03:36:23.615Z,53.30
2023-06-03T03:39:01.920Z,52.70
2023-06-03T03:41:31.697Z,52.79
2023-06-03T03:44:00.591Z,53.16
2023-06-03T03:46:28.800Z,53.45
2023-06-03T03:48:56.831Z,53.42
2023-06-03T03:51:24.680Z,53.33
2023-06-03T03:53:53.194Z,53.42
2023-06-03T03:56:23.628Z,53.10
2023-06-03T03:58:54.513Z,53.73
2023-06-03T04:01:24.821Z,53.24
2023-06-03T04:03:56.395Z,53.53
2023-06-03T04:06:33.832Z,53.55
2023-06-03T04:09:02.757Z,53.65
2023-06-03T04:11:32.568Z,53.70
2023-06-03T04:14:04.375Z,53.24
2023-06-03T04:16:50.372Z,53.72
2023-06-03T04:19:21.442Z,53.14
2023-06-03T04:21:49.887Z,52.80
2023-06-03T04:24:18.550Z,52.84
2023-06-03T04:26:46.562Z,52.43
2023-06-03T04:29:15.829Z,52.25
2023-06-03T04:31:43.734Z,52.55
2023-06-03T04:34:11.589Z,52.55
2023-06-03T04:36:39.420Z,52.78
2023-06-03T04:39:07.389Z,51.99
2023-06-03T04:41:35.298Z,51.26
2023-06-03T04:44:03.759Z,50.81
2023-06-03T04:46:33.271Z,51.11
2023-06-03T04:49:02.640Z,51.20
2023-06-03T04:51:34.912Z,51.76
2023-06-03T04:54:04.431Z,51.67
2023-06-03T04:56:32.624Z,51.08
2023-06-03T04:59:01.861Z,51.20
2023-06-03T05:01:30.454Z,50.50
2023-06-03T05:04:00.057Z,50.92
2023-06-03T05:06:29.722Z,51.01
2023-06-03T05:08:57.651Z,50.89
2023-06-03T05:11:25.979Z,49.14
2023-06-03T05:13:53.834Z,48.68
2023-06-03T05:16:21.722Z,48.63
2023-06-03T05:18:49.716Z,47.03
2023-06-03T05:21:20.653Z,47.03
2023-06-03T05:23:49.125Z,47.40
2023-06-03T05:26:17.036Z,45.94
2023-06-03T05:28:45.038Z,45.33
2023-06-03T05:31:13.138Z,44.24
2023-06-03T05:33:41.638Z,42.71
2023-06-03T05:36:09.985Z,43.38
2023-06-03T05:38:39.259Z,42.60
2023-06-03T05:41:08.160Z,42.33
2023-06-03T05:43:36.260Z,41.77
2023-06-03T05:46:04.206Z,40.34
2023-06-03T05:48:32.618Z,40.20
2023-06-03T05:51:02.036Z,40.73
2023-06-03T05:53:29.891Z,39.68
2023-06-03T05:55:59.221Z,40.08
2023-06-03T05:58:27.094Z,40.04
2023-06-03T06:00:54.945Z,40.32
2023-06-03T06:03:23.080Z,39.89
2023-06-03T06:05:51.137Z,39.11
2023-06-03T06:08:18.991Z,39.36
2023-06-03T06:10:47.183Z,37.84
2023-06-03T06:13:16.829Z,37.75
2023-06-03T06:15:59.613Z,37.75
2023-06-03T06:18:27.796Z,37.91
2023-06-03T06:20:55.792Z,37.28
2023-06-03T06:23:23.774Z,36.34
2023-06-03T06:25:52.899Z,37.31
2023-06-03T06:28:26.047Z,37.02
2023-06-03T06:30:55.462Z,35.35
2023-06-03T06:33:23.864Z,34.49
2023-06-03T06:35:51.786Z,33.31
2023-06-03T06:38:19.663Z,33.46
2023-06-03T06:40:47.617Z,32.80
2023-06-03T06:43:19.943Z,32.39
2023-06-03T06:45:49.740Z,31.63
2023-06-03T06:48:17.796Z,31.89
2023-06-03T06:50:50.908Z,31.51
2023-06-03T06:53:20.741Z,30.78
2023-06-03T06:55:50.841Z,30.83
2023-06-03T06:58:19.826Z,31.36
2023-06-03T07:00:50.233Z,30.29
2023-06-03T07:03:19.499Z,29.71
2023-06-03T07:05:53.603Z,29.82
2023-06-03T07:08:23.260Z,29.06
2023-06-03T07:10:51.421Z,28.71
2023-06-03T07:13:19.370Z,28.79
2023-06-03T07:15:47.372Z,28.45
2023-06-03T07:18:16.827Z,27.59
2023-06-03T07:20:46.495Z,28.90
2023-06-03T07:23:16.259Z,29.78
2023-06-03T07:25:45.829Z,30.48
2023-06-03T07:28:15.135Z,29.91
2023-06-03T07:30:44.564Z,29.43
2023-06-03T07:33:24.174Z,28.98
2023-06-03T07:35:55.658Z,28.19
2023-06-03T07:38:57.901Z,28.03
2023-06-03T07:41:41.033Z,28.75
2023-06-03T07:44:11.399Z,29.89
2023-06-03T07:46:55.515Z,31.72
2023-06-03T07:49:24.342Z,32.86
2023-06-03T07:51:54.973Z,34.40
2023-06-03T07:54:24.080Z,34.58
2023-06-03T07:56:52.148Z,35.70
2023-06-03T07:59:22.022Z,34.61
2023-06-03T08:01:52.397Z,35.03
2023-06-03T08:04:33.240Z,36.54
2023-06-03T08:07:03.843Z,37.25
2023-06-03T08:09:36.176Z,38.12
2023-06-03T08:12:07.006Z,38.59
2023-06-03T08:14:36.522Z,37.75
2023-06-03T08:17:09.937Z,38.30
2023-06-03T08:19:38.655Z,39.11
2023-06-03T08:22:30.645Z,38.00
2023-06-03T08:24:58.514Z,37.21
2023-06-03T08:27:26.575Z,36.93
2023-06-03T08:29:54.584Z,37.13
2023-06-03T08:32:23.753Z,37.36
2023-06-03T08:34:51.742Z,37.80
2023-06-03T08:37:22.238Z,37.97
2023-06-03T08:39:50.237Z,37.29
2023-06-03T08:42:24.282Z,37.80
2023-06-03T08:45:02.986Z,37.43
2023-06-03T08:47:37.320Z,36.27
2023-06-03T08:50:07.949Z,36.27
2023-06-03T08:52:38.103Z,36.06
2023-06-03T08:55:08.123Z,35.83
2023-06-03T08:57:37.293Z,35.54
2023-06-03T09:00:08.467Z,35.42
2023-06-03T09:02:38.308Z,35.47
2023-06-03T09:05:07.631Z,35.68
2023-06-03T09:07:37.968Z,35.15
2023-06-03T09:10:07.142Z,34.76
2023-06-03T09:12:35.991Z,34.40
2023-06-03T09:15:05.319Z,34.52
2023-06-03T09:17:34.220Z,34.76
2023-06-03T09:20:03.427Z,34.72
2023-06-03T09:22:32.175Z,34.63
2023-06-03T09:25:01.500Z,34.60
2023-06-03T09:27:29.438Z,35.19
2023-06-03T09:29:57.997Z,34.22
2023-06-03T09:32:25.973Z,34.36
2023-06-03T09:34:54.879Z,34.02
2023-06-03T09:37:22.777Z,33.69
2023-06-03T09:39:50.797Z,33.68
2023-06-03T09:42:20.024Z,33.71
2023-06-03T09:44:50.628Z,34.03
2023-06-03T09:47:18.793Z,33.59
2023-06-03T09:50:05.527Z,32.76
2023-06-03T09:52:34.239Z,32.13
2023-06-03T09:55:04.070Z,32.74
2023-06-03T09:57:33.558Z,32.33
2023-06-03T10:00:11.947Z,33.01
2023-06-03T10:02:41.987Z,31.96
2023-06-03T10:05:27.873Z,31.74
2023-06-03T10:07:56.183Z,31.63
2023-06-03T10:10:24.757Z,31.22
2023-06-03T10:12:54.232Z,30.87
2023-06-03T10:15:39.100Z,28.26
2023-06-03T10:18:08.315Z,27.41
2023-06-03T10:20:37.979Z,25.16
2023-06-03T10:23:08.002Z,24.95
2023-06-03T10:25:42.447Z,23.94
2023-06-03T10:28:12.049Z,22.17
2023-06-03T10:30:41.139Z,21.75
2023-06-03T10:33:10.627Z,20.93
2023-06-03T10:35:40.225Z,20.36
2023-06-03T10:38:09.659Z,19.28
2023-06-03T10:40:37.567Z,18.31
2023-06-03T10:43:05.982Z,18.16
2023-06-03T10:45:35.583Z,17.83
2023-06-03T10:48:09.806Z,17.23
2023-06-03T10:50:54.884Z,16.82
2023-06-03T10:53:38.719Z,15.99
2023-06-03T10:56:10.210Z,15.38
2023-06-03T10:58:42.558Z,15.06
2023-06-03T11:01:12.041Z,14.80
2023-06-03T11:04:13.589Z,13.93
2023-06-03T11:06:41.740Z,13.59
2023-06-03T11:09:14.099Z,13.27
2023-06-03T11:12:08.202Z,13.37
2023-06-03T11:14:58.197Z,13.32
2023-06-03T11:17:28.638Z,13.99
2023-06-03T11:20:00.800Z,14.21
2023-06-03T11:22:47.536Z,13.34
2023-06-03T11:25:31.266Z,13.88
2023-06-03T11:28:37.668Z,14.18
2023-06-03T11:31:08.692Z,14.22
2023-06-03T11:33:38.488Z,14.65
2023-06-03T11:36:58.775Z,14.65
2023-06-03T11:39:27.182Z,15.01
2023-06-03T11:42:10.752Z,16.10
2023-06-03T11:44:41.365Z,16.67
2023-06-03T11:47:09.962Z,16.86
2023-06-03T11:49:41.048Z,18.10
2023-06-03T11:52:10.368Z,18.72
2023-06-03T11:54:39.562Z,19.04
2023-06-03T11:57:09.380Z,19.63
2023-06-03T11:59:42.159Z,20.07
2023-06-03T12:02:10.602Z,21.05
2023-06-03T12:04:40.573Z,22.21
2023-06-03T12:07:12.673Z,23.59
2023-06-03T12:09:40.984Z,24.00
2023-06-03T12:12:11.101Z,24.36
2023-06-03T12:14:40.232Z,24.61
2023-06-03T12:17:14.713Z,24.77
2023-06-03T12:19:46.192Z,25.27
2023-06-03T12:22:14.857Z,25.90
2023-06-03T12:24:44.381Z,26.44
2023-06-03T12:27:13.843Z,25.90
2023-06-03T12:29:46.619Z,26.20
2023-06-03T12:32:14.785Z,25.95
2023-06-03T12:34:45.453Z,25.79
2023-06-03T12:37:14.766Z,25.81
2023-06-03T12:39:45.699Z,26.43
2023-06-03T12:42:14.240Z,26.76
2023-06-03T12:44:46.673Z,26.12
2023-06-03T12:47:16.964Z,26.37
2023-06-03T12:50:05.609Z,26.33
2023-06-03T12:52:35.931Z,26.17
2023-06-03T12:55:05.570Z,26.91
2023-06-03T12:57:36.405Z,27.41
2023-06-03T13:00:08.625Z,26.86
2023-06-03T13:02:37.702Z,27.98
2023-06-03T13:05:08.547Z,27.83
2023-06-03T13:07:37.760Z,27.62
2023-06-03T13:10:07.517Z,27.29
2023-06-03T13:12:36.735Z,26.79
2023-06-03T13:15:11.406Z,26.24
2023-06-03T13:17:39.738Z,25.82
2023-06-03T13:20:10.640Z,25.61
2023-06-03T13:22:41.195Z,26.09
2023-06-03T13:25:09.662Z,26.72
2023-06-03T13:27:37.831Z,26.92
2023-06-03T13:30:06.901Z,26.77
2023-06-03T13:32:35.498Z,26.46
2023-06-03T13:35:04.179Z,26.08
2023-06-03T13:37:33.603Z,25.96
2023-06-03T13:40:01.465Z,26.25
2023-06-03T13:42:29.450Z,26.31
2023-06-03T13:44:57.311Z,26.62
2023-06-03T13:47:25.325Z,26.30
2023-06-03T13:49:54.485Z,26.49
2023-06-03T13:52:22.586Z,26.43
2023-06-03T13:54:51.828Z,26.18
2023-06-03T13:57:19.745Z,27.03
2023-06-03T13:59:47.834Z,26.70
2023-06-03T14:02:16.554Z,26.48
2023-06-03T14:04:45.168Z,26.85
2023-06-03T14:07:13.206Z,26.81
2023-06-03T14:09:41.273Z,26.77
2023-06-03T14:12:12.867Z,26.40
2023-06-03T14:14:41.231Z,26.25
2023-06-03T14:17:09.324Z,26.54
2023-06-03T14:19:37.305Z,27.12
2023-06-03T14:22:05.851Z,26.94
2023-06-03T14:24:34.264Z,26.99
2023-06-03T14:27:02.519Z,27.18
2023-06-03T14:29:31.742Z,27.10
2023-06-03T14:31:59.913Z,27.44
2023-06-03T14:34:27.959Z,27.60
2023-06-03T14:36:55.784Z,27.41
2023-06-03T14:39:23.742Z,26.92
2023-06-03T14:41:52.471Z,26.77
2023-06-03T14:44:22.454Z,26.48
2023-06-03T14:46:51.783Z,26.83
2023-06-03T14:49:21.038Z,26.87
2023-06-03T14:51:48.943Z,26.77
2023-06-03T14:54:16.933Z,26.79
2023-06-03T14:56:44.856Z,26.77
2023-06-03T14:59:12.832Z,26.63
2023-06-03T15:01:41.780Z,26.81
2023-06-03T15:04:11.088Z,26.81
2023-06-03T15:06:39.115Z,26.44
2023-06-03T15:09:07.331Z,26.75
2023-06-03T15:11:35.394Z,26.65
2023-06-03T15:14:03.346Z,26.26
2023-06-03T15:16:31.250Z,25.72
2023-06-03T15:18:59.175Z,25.96
2023-06-03T15:21:28.498Z,26.02
2023-06-03T15:23:56.938Z,25.54
2023-06-03T15:26:24.983Z,25.71
2023-06-03T15:28:52.876Z,25.48
2023-06-03T15:31:21.194Z,25.20
2023-06-03T15:33:49.196Z,25.27
2023-06-03T15:36:17.587Z,25.09
2023-06-03T15:38:47.543Z,25.25
2023-06-03T15:41:15.848Z,25.06
2023-06-03T15:43:43.832Z,24.94
2023-06-03T15:46:11.766Z,25.15
2023-06-03T15:48:41.348Z,25.26
2023-06-03T15:51:09.576Z,25.32
2023-06-03T15:53:37.549Z,25.56
2023-06-03T15:56:07.166Z,25.39
2023-06-03T15:58:35.616Z,25.29
2023-06-03T16:01:03.536Z,24.82
2023-06-03T16:03:31.525Z,25.26
2023-06-03T16:05:59.445Z,25.45
2023-06-03T16:08:27.399Z,25.55
2023-06-03T16:10:56.192Z,25.70
2023-06-03T16:13:27.301Z,25.63
2023-06-03T16:15:57.760Z,25.94
2023-06-03T16:18:27.663Z,25.72
2023-06-03T16:20:56.431Z,25.56
2023-06-03T16:23:28.946Z,25.62
2023-06-03T16:25:57.235Z,25.62
2023-06-03T16:28:26.617Z,25.66
2023-06-03T16:30:55.165Z,25.50
2023-06-03T16:33:23.163Z,25.53
2023-06-03T16:35:51.069Z,25.80
2023-06-03T16:38:19.109Z,25.96
2023-06-03T16:40:48.727Z,25.78
2023-06-03T16:43:17.150Z,26.10
2023-06-03T16:45:46.991Z,26.07
2023-06-03T16:48:14.993Z,25.92
2023-06-03T16:50:42.975Z,25.61
2023-06-03T16:53:10.956Z,25.71
2023-06-03T16:55:39.124Z,25.80
2023-06-03T16:58:07.054Z,25.74
2023-06-03T17:00:34.981Z,25.37
2023-06-03T17:03:04.315Z,25.37
2023-06-03T17:05:32.556Z,25.44
2023-06-03T17:08:01.252Z,25.60
2023-06-03T17:10:30.144Z,25.48
2023-06-03T17:12:58.074Z,25.52
2023-06-03T17:15:26.143Z,25.38
2023-06-03T17:17:54.411Z,25.43
2023-06-03T17:20:24.003Z,25.58
2023-06-03T17:22:51.878Z,25.23
2023-06-03T17:25:20.917Z,25.32
2023-06-03T17:27:48.841Z,25.47
2023-06-03T17:30:16.717Z,25.35
2023-06-03T17:32:45.909Z,25.56
2023-06-03T17:35:14.447Z,25.53
2023-06-03T17:37:44.000Z,25.44
2023-06-03T17:40:13.069Z,25.36
2023-06-03T17:42:42.130Z,25.50
2023-06-03T17:45:11.160Z,25.61
2023-06-03T17:47:39.149Z,25.78
2023-06-03T17:50:07.975Z,25.68
2023-06-03T17:52:36.155Z,25.83
2023-06-03T17:55:05.718Z,25.86
2023-06-03T17:57:34.042Z,26.08
2023-06-03T18:00:01.987Z,26.24
2023-06-03T18:02:35.152Z,26.19
2023-06-03T18:05:03.396Z,26.12
2023-06-03T18:07:31.426Z,26.10
2023-06-03T18:09:59.304Z,26.19
2023-06-03T18:12:28.556Z,26.10
2023-06-03T18:14:56.439Z,26.46
2023-06-03T18:17:25.058Z,26.67
2023-06-03T18:19:54.024Z,26.70
2023-06-03T18:22:22.217Z,27.04
2023-06-03T18:24:50.147Z,27.42
2023-06-03T18:27:18.939Z,27.19
2023-06-03T18:29:49.718Z,27.35
2023-06-03T18:32:17.855Z,27.71
2023-06-03T18:34:46.328Z,27.83
2023-06-03T18:37:14.350Z,27.87
2023-06-03T18:39:42.436Z,27.92
2023-06-03T18:42:10.972Z,28.21
2023-06-03T18:44:38.840Z,28.36
2023-06-03T18:47:08.865Z,28.70
2023-06-03T18:49:36.798Z,28.56
2023-06-03T18:52:05.243Z,28.97
2023-06-03T18:54:33.220Z,29.21
2023-06-03T18:57:01.587Z,29.11
2023-06-03T18:59:29.652Z,29.48
2023-06-03T19:01:57.696Z,29.35
2023-06-03T19:04:27.489Z,29.86
2023-06-03T19:06:55.691Z,29.86
2023-06-03T19:09:23.549Z,29.60
2023-06-03T19:11:51.430Z,29.91
2023-06-03T19:14:19.513Z,30.00
2023-06-03T19:16:47.539Z,30.00
2023-06-03T19:19:15.716Z,30.41
2023-06-03T19:21:44.982Z,30.43
2023-06-03T19:24:13.025Z,30.48
2023-06-03T19:26:40.976Z,30.61
2023-06-03T19:29:08.860Z,30.29
2023-06-03T19:31:36.882Z,30.67
2023-06-03T19:34:05.708Z,30.76
2023-06-03T19:36:33.653Z,30.73
2023-06-03T19:39:02.941Z,30.89
2023-06-03T19:41:30.774Z,31.27
2023-06-03T19:43:58.974Z,31.02
2023-06-03T19:46:29.209Z,31.17
2023-06-03T19:48:57.256Z,31.07
2023-06-03T19:51:25.191Z,31.15
2023-06-03T19:53:53.228Z,31.63
2023-06-03T19:56:24.601Z,31.63
2023-06-03T19:58:52.656Z,31.44
2023-06-03T20:01:23.377Z,31.05
2023-06-03T20:03:51.851Z,30.68
2023-06-03T20:06:20.194Z,30.96
2023-06-03T20:08:50.779Z,30.64
2023-06-03T20:11:19.515Z,30.73
2023-06-03T20:13:49.096Z,30.56
2023-06-03T20:16:16.983Z,30.98
2023-06-03T20:18:45.835Z,31.30
2023-06-03T20:21:13.914Z,31.51
2023-06-03T20:23:41.864Z,31.48
2023-06-03T20:26:10.094Z,31.46
2023-06-03T20:28:38.473Z,31.66
2023-06-03T20:31:09.477Z,31.73
2023-06-03T20:33:37.474Z,31.24
2023-06-03T20:36:06.412Z,31.90
2023-06-03T20:38:34.665Z,32.26
2023-06-03T20:41:03.931Z,31.94
2023-06-03T20:43:32.081Z,32.02
2023-06-03T20:46:00.511Z,32.83
2023-06-03T20:48:29.860Z,32.87
2023-06-03T20:50:57.843Z,32.30
2023-06-03T20:53:28.309Z,32.80
2023-06-03T20:55:56.606Z,32.48
2023-06-03T20:58:24.850Z,32.66
2023-06-03T21:00:52.748Z,33.06
2023-06-03T21:03:20.865Z,33.02
2023-06-03T21:05:50.597Z,33.15
2023-06-03T21:08:18.564Z,32.97
2023-06-03T21:10:46.648Z,32.77
2023-06-03T21:13:14.610Z,32.72
2023-06-03T21:15:42.579Z,32.98
2023-06-03T21:18:10.990Z,32.59
2023-06-03T21:20:39.037Z,32.46
2023-06-03T21:23:08.396Z,32.32
2023-06-03T21:25:36.614Z,32.29
2023-06-03T21:28:04.533Z,32.11
2023-06-03T21:30:32.531Z,32.12
2023-06-03T21:33:00.536Z,32.49
2023-06-03T21:35:28.480Z,32.12
2023-06-03T21:37:56.384Z,32.22
2023-06-03T21:40:25.740Z,32.32
2023-06-03T21:42:53.572Z,32.07
2023-06-03T21:45:21.622Z,32.21
2023-06-03T21:47:49.519Z,32.05
2023-06-03T21:50:17.614Z,31.86
2023-06-03T21:52:48.142Z,31.65
2023-06-03T21:55:16.978Z,32.18
2023-06-03T21:57:46.236Z,31.50
2023-06-03T22:00:15.339Z,31.76
2023-06-03T22:02:44.112Z,32.20
2023-06-03T22:05:12.146Z,32.29
2023-06-03T22:07:40.217Z,32.18
2023-06-03T22:10:11.690Z,32.39
2023-06-03T22:12:39.600Z,32.27
2023-06-03T22:15:10.248Z,32.48
2023-06-03T22:17:38.202Z,32.46
2023-06-03T22:20:07.370Z,32.85
2023-06-03T22:22:35.281Z,33.05
2023-06-03T22:25:03.805Z,32.66
2023-06-03T22:27:31.858Z,32.97
2023-06-03T22:29:59.775Z,33.74
2023-06-03T22:32:29.186Z,33.78
2023-06-03T22:34:57.165Z,33.41
2023-06-03T22:37:25.138Z,33.98
2023-06-03T22:39:53.708Z,33.65
2023-06-03T22:42:21.544Z,33.92
2023-06-03T22:44:49.532Z,33.88
2023-06-03T22:47:17.447Z,33.68
2023-06-03T22:49:46.732Z,33.76
2023-06-03T22:52:14.629Z,33.73
2023-06-03T22:54:42.609Z,33.75
2023-06-03T22:57:10.615Z,33.84
2023-06-03T22:59:38.608Z,33.37
2023-06-03T23:02:07.399Z,33.24
2023-06-03T23:04:35.482Z,33.82
2023-06-03T23:07:04.944Z,33.49
2023-06-03T23:09:32.849Z,33.53
2023-06-03T23:12:00.774Z,33.60
2023-06-03T23:14:28.641Z,33.12
2023-06-03T23:16:56.789Z,33.08
2023-06-03T23:19:24.705Z,33.42
2023-06-03T23:21:52.659Z,33.61
2023-06-03T23:24:21.968Z,33.53
2023-06-03T23:26:49.859Z,33.41
2023-06-03T23:29:17.831Z,33.84
2023-06-03T23:31:47.140Z,34.25
2023-06-03T23:34:15.069Z,34.11
2023-06-03T23:36:43.029Z,34.50
2023-06-03T23:39:10.970Z,34.70
2023-06-03T23:41:40.740Z,34.03
2023-06-03T23:44:08.652Z,34.36
2023-06-03T23:46:36.531Z,34.07
2023-06-03T23:49:04.531Z,33.97
2023-06-03T23:51:32.497Z,34.25
2023-06-03T23:54:01.710Z,34.13
2023-06-03T23:56:30.988Z,34.38
2023-06-03T23:59:02.023Z,34.46
